Allensburg, Ohio
Current Conditions -  °F | °C
As of 9:54 AM on Saturday 20 Dec 2014 (Local Time) from KILN Reporting Station
Haze Haze  
Wind Chill: -2°   Ceiling: 1400
Heat Index: -2°   Visibility: 6mi
Dew Point: -6°   Wind: 0mph
Humidity: 78%   Direction: NA
Pressure: 30.28"   Gusts: NA
Location:  39.1546°N, 83.569°W
Report Text: KILN 201454Z AUTO 00000KT 6SM HZ OVC014 M02/M06 A3028 RMK AO2 SLP281 T10221056 53003
Loading
Personal Weather Stations






























Interactive Weather Map New forecast layout! Learn more

10-Day Weather Forecast

Advertisements
Track Severe Weather on mobile